Estación Meteorológica Peña el Pijo (Robertgarden) [ 05/25/18 12:59:24 CEST ]

Fecha Hora Presion(HPa) Temp (°C) Humedad % Rocio (°C) Viento ( m/s) Direccion Lluvia 1Hora(mm) Lluvia 24H(mm) LLuvia Total(mm)
2018-May-07 01:01:43 1008.800 7.9 77 4.1         205.12
2018-May-07 02:01:33 1008.400 6.9 80 3.7         205.12
2018-May-07 03:02:19 1007.900 6.1 81 3.1         205.12
2018-May-07 04:01:58 1007.800 5.1 83 2.4         205.12
2018-May-07 05:02:17 1007.600 4.7 84 2.2         205.12
2018-May-07 06:02:12 1007.000 4.1 85 1.8         205.12
2018-May-07 07:01:41 1007.200 4.2 85 1.9         205.12
2018-May-07 08:01:41 1007.300 5.4 86 3.2         205.12
2018-May-07 09:01:39 1007.400 10.5 86 8.2         205.12
2018-May-07 10:01:45 1007.400 15.5 67 9.4         205.12
2018-May-07 11:01:38 1007.000 19.3 52 9.2 0.5 NE     205.12
2018-May-07 12:01:38 1007.100 17.2 52 7.2         205.12
2018-May-07 13:01:37 1006.900 18.2 53 8.4         205.12
2018-May-07 14:01:38 1006.300 20.4 45 8.0         205.12
2018-May-07 15:01:49 1006.300 21.3 42 7.8 3.3 SE     205.12
2018-May-07 16:01:42 1005.500 21.1 41 7.3 0.4 ESE     205.12
2018-May-07 17:01:34 1005.500 20.3 42 6.6         205.12
2018-May-07 18:01:41 1005.500 15.4 55 6.4         205.12
2018-May-07 19:02:03 1005.100 18.6 44 6.0         205.12
2018-May-07 20:01:45 1005.100 17.8 47 6.3         205.12
2018-May-07 21:01:30 1005.400 15.9 52 6.0         205.12
2018-May-07 22:01:48 1005.800 12.9 63 6.0         205.12
2018-May-07 23:01:35 1006.300 10.3 68 4.6         205.12

Temperatura Máxima:21°    Temperatura Mínima:
Presión Máxima:1008.800 Hpa    Presión Mínima:1005.100 Hpa


Volver